Аэропорт: Николаев. Николаев

ICAO: UKON

METAR:
Информация по данной станции не доступна
METAR:
2021-04-21 14:03:00
TAF UKON 211403Z 2115/2124 22006G13MPS 9999 BKN007 SCT025CB TEMPO 2115/2118 VRB10G19MPS 0500 +TSRAGR SQ VV002